TimeCST,TemperatureF,Dew PointF,Humidity,Sea Level PressureIn,VisibilityMPH,Wind Direction,Wind SpeedMPH,Gust SpeedMPH,PrecipitationIn,Events,Conditions,WindDirDegrees,DateUTC
12:54 AM,37.0,30.0,76,30.14,8.0,East,4.6,-,N/A,,Partly Cloudy,80,2013-02-07 06:54:00
1:54 AM,37.9,30.0,73,30.14,8.0,Calm,Calm,-,N/A,,Scattered Clouds,0,2013-02-07 07:54:00
2:54 AM,37.9,30.9,76,30.12,8.0,Calm,Calm,-,N/A,,Mostly Cloudy,0,2013-02-07 08:54:00
3:54 AM,37.9,30.0,73,30.12,8.0,Calm,Calm,-,N/A,,Partly Cloudy,0,2013-02-07 09:54:00
4:54 AM,34.0,28.9,82,30.09,7.0,ENE,4.6,-,N/A,,Clear,60,2013-02-07 10:54:00
5:54 AM,30.0,26.1,85,30.08,6.0,NE,6.9,-,N/A,,Clear,40,2013-02-07 11:54:00
6:54 AM,32.0,28.0,85,30.08,5.0,ENE,5.8,-,N/A,,Clear,60,2013-02-07 12:54:00
7:54 AM,37.0,30.9,79,30.07,5.0,ESE,4.6,-,N/A,,Haze,120,2013-02-07 13:54:00
8:54 AM,43.0,32.0,65,30.06,9.0,East,3.5,-,N/A,,Clear,100,2013-02-07 14:54:00
9:54 AM,51.1,34.0,52,30.04,10.0,SE,6.9,-,N/A,,Clear,140,2013-02-07 15:54:00
10:54 AM,55.0,36.0,49,30.02,10.0,SE,5.8,-,N/A,,Clear,130,2013-02-07 16:54:00
11:54 AM,60.1,39.0,46,29.97,10.0,SSE,9.2,-,N/A,,Clear,150,2013-02-07 17:54:00
12:54 PM,63.0,42.1,46,29.94,10.0,SSW,9.2,-,N/A,,Clear,210,2013-02-07 18:54:00
1:54 PM,64.0,42.1,45,29.91,10.0,SSW,6.9,-,N/A,,Partly Cloudy,210,2013-02-07 19:54:00
2:54 PM,64.9,44.1,47,29.90,10.0,SSW,10.4,-,N/A,,Clear,200,2013-02-07 20:54:00
3:54 PM,63.0,46.0,54,29.88,10.0,SSW,10.4,-,N/A,,Partly Cloudy,210,2013-02-07 21:54:00
4:54 PM,61.0,45.0,56,29.86,10.0,South,6.9,-,N/A,,Clear,190,2013-02-07 22:54:00
5:54 PM,59.0,45.0,60,29.87,10.0,SSW,6.9,-,N/A,,Overcast,200,2013-02-07 23:54:00
6:54 PM,57.9,45.0,62,29.87,10.0,SSW,6.9,-,N/A,,Mostly Cloudy,200,2013-02-08 00:54:00
7:54 PM,57.0,46.9,69,29.86,10.0,SW,6.9,-,0.00,Rain,Light Rain,230,2013-02-08 01:54:00
8:52 PM,55.4,51.8,88,29.87,5.0,West,9.2,-,0.08,Rain,Rain,260,2013-02-08 02:52:00
8:54 PM,55.0,51.1,86,29.87,5.0,West,9.2,-,0.08,Rain,Rain,260,2013-02-08 02:54:00
9:20 PM,53.6,51.8,94,29.87,7.0,West,9.2,-,0.02,Rain,Light Rain,280,2013-02-08 03:20:00
9:33 PM,53.6,51.8,94,29.87,7.0,West,9.2,-,0.03,Rain,Light Rain,280,2013-02-08 03:33:00
9:46 PM,53.6,50.0,88,29.87,8.0,NW,9.2,-,0.03,Rain,Light Rain,320,2013-02-08 03:46:00
9:54 PM,53.1,48.9,86,29.88,9.0,NW,9.2,-,0.03,Rain,Light Rain,310,2013-02-08 03:54:00
10:06 PM,53.6,48.2,82,29.87,10.0,WNW,9.2,-,0.00,Rain,Light Rain,300,2013-02-08 04:06:00
10:14 PM,51.8,48.2,88,29.88,9.0,NW,10.4,-,0.00,,Overcast,310,2013-02-08 04:14:00
10:22 PM,51.8,48.2,88,29.88,7.0,NW,11.5,17.3,0.00,Rain,Light Rain,310,2013-02-08 04:22:00
10:29 PM,51.8,48.2,88,29.88,5.0,NW,11.5,17.3,0.00,Rain,Rain,310,2013-02-08 04:29:00
10:42 PM,51.8,48.2,88,29.88,4.0,NW,11.5,20.7,N/A,Rain,Light Rain,310,2013-02-08 04:42:00
10:54 PM,50.0,46.9,89,29.88,9.0,WNW,8.1,-,0.04,Rain,Light Rain,300,2013-02-08 04:54:00
10:57 PM,50.0,46.4,87,29.89,10.0,NW,9.2,-,0.00,Rain,Light Rain,310,2013-02-08 04:57:00
11:17 PM,48.2,44.6,87,29.90,10.0,NW,17.3,26.5,0.00,,Overcast,310,2013-02-08 05:17:00
11:24 PM,48.2,44.6,87,29.91,10.0,NW,17.3,23.0,0.00,,Overcast,310,2013-02-08 05:24:00
11:54 PM,46.9,43.0,86,29.92,9.0,NW,17.3,24.2,0.00,Rain,Light Rain,320,2013-02-08 05:54:00